createdAt,value
2023-04-25T00:01:57.577Z,56.40
2023-04-25T00:04:24.741Z,57.40
2023-04-25T00:06:53.261Z,58.20
2023-04-25T00:09:20.317Z,58.50
2023-04-25T00:11:47.091Z,59.40
2023-04-25T00:14:13.923Z,60.00
2023-04-25T00:16:42.290Z,60.30
2023-04-25T00:19:10.608Z,60.90
2023-04-25T00:21:41.670Z,60.90
2023-04-25T00:24:09.061Z,60.40
2023-04-25T00:26:37.072Z,60.00
2023-04-25T00:29:04.043Z,59.50
2023-04-25T00:31:31.210Z,59.10
2023-04-25T00:33:58.102Z,59.30
2023-04-25T00:36:24.832Z,59.30
2023-04-25T00:38:51.688Z,59.50
2023-04-25T00:41:19.248Z,60.30
2023-04-25T00:43:47.188Z,60.30
2023-04-25T00:46:14.420Z,60.30
2023-04-25T00:48:41.264Z,60.50
2023-04-25T00:51:08.075Z,61.20
2023-04-25T00:53:34.945Z,61.50
2023-04-25T00:56:01.808Z,61.60
2023-04-25T00:58:28.636Z,61.80
2023-04-25T01:00:57.099Z,61.80
2023-04-25T01:03:24.194Z,61.70
2023-04-25T01:05:51.956Z,61.50
2023-04-25T01:08:18.737Z,61.50
2023-04-25T01:10:45.441Z,61.90
2023-04-25T01:13:12.299Z,62.20
2023-04-25T01:15:39.199Z,63.10
2023-04-25T01:18:06.952Z,62.80
2023-04-25T01:20:34.668Z,63.10
2023-04-25T01:23:04.081Z,62.70
2023-04-25T01:25:33.837Z,63.20
2023-04-25T01:28:01.044Z,63.10
2023-04-25T01:30:28.733Z,62.90
2023-04-25T01:32:57.667Z,63.10
2023-04-25T01:35:25.974Z,62.90
2023-04-25T01:37:53.249Z,62.90
2023-04-25T01:40:23.445Z,63.30
2023-04-25T01:42:50.513Z,62.00
2023-04-25T01:45:17.860Z,63.00
2023-04-25T01:47:47.988Z,63.80
2023-04-25T01:50:14.918Z,63.60
2023-04-25T01:52:41.684Z,64.20
2023-04-25T01:55:08.859Z,64.40
2023-04-25T01:57:35.787Z,64.30
2023-04-25T02:00:05.970Z,65.00
2023-04-25T02:02:32.782Z,65.40
2023-04-25T02:04:59.606Z,65.90
2023-04-25T02:07:27.629Z,65.90
2023-04-25T02:09:54.392Z,65.50
2023-04-25T02:12:21.178Z,65.40
2023-04-25T02:14:47.993Z,65.50
2023-04-25T02:17:14.866Z,65.80
2023-04-25T02:19:41.736Z,65.70
2023-04-25T02:22:08.494Z,66.00
2023-04-25T02:24:35.911Z,65.40
2023-04-25T02:27:02.841Z,65.70
2023-04-25T02:29:30.660Z,65.80
2023-04-25T02:31:57.484Z,65.70
2023-04-25T02:34:24.397Z,65.30
2023-04-25T02:36:51.995Z,65.30
2023-04-25T02:39:19.112Z,65.10
2023-04-25T02:41:46.078Z,64.90
2023-04-25T02:44:12.870Z,64.70
2023-04-25T02:46:40.051Z,64.70
2023-04-25T02:49:07.725Z,64.70
2023-04-25T02:51:34.712Z,64.00
2023-04-25T02:54:01.511Z,63.90
2023-04-25T02:56:28.485Z,63.40
2023-04-25T02:58:55.321Z,63.00
2023-04-25T03:01:22.226Z,62.10
2023-04-25T03:03:49.308Z,61.40
2023-04-25T03:06:17.014Z,61.70
2023-04-25T03:08:44.056Z,60.60
2023-04-25T03:11:11.517Z,60.60
2023-04-25T03:13:38.345Z,59.80
2023-04-25T03:16:05.554Z,58.80
2023-04-25T03:18:32.630Z,58.20
2023-04-25T03:20:59.637Z,58.00
2023-04-25T03:23:27.069Z,57.40
2023-04-25T03:25:53.790Z,57.80
2023-04-25T03:28:21.003Z,58.50
2023-04-25T03:30:47.738Z,58.40
2023-04-25T03:33:14.568Z,58.10
2023-04-25T03:35:41.352Z,57.70
2023-04-25T03:38:08.114Z,57.60
2023-04-25T03:40:35.209Z,58.10
2023-04-25T03:43:01.914Z,57.50
2023-04-25T03:45:28.710Z,57.30
2023-04-25T03:47:55.509Z,56.60
2023-04-25T03:50:22.264Z,56.60
2023-04-25T03:52:48.981Z,56.40
2023-04-25T03:55:15.762Z,56.10
2023-04-25T03:57:42.482Z,55.90
2023-04-25T04:00:10.298Z,55.80
2023-04-25T04:02:38.646Z,55.60
2023-04-25T04:05:07.037Z,56.00
2023-04-25T04:07:34.424Z,56.00
2023-04-25T04:10:01.172Z,56.30
2023-04-25T04:12:27.885Z,55.70
2023-04-25T04:14:54.634Z,55.40
2023-04-25T04:17:21.557Z,55.40
2023-04-25T04:19:48.297Z,55.20
2023-04-25T04:22:15.261Z,55.10
2023-04-25T04:24:44.907Z,54.80
2023-04-25T04:27:13.705Z,54.60
2023-04-25T04:29:40.611Z,54.50
2023-04-25T04:32:09.685Z,54.60
2023-04-25T04:34:36.692Z,54.40
2023-04-25T04:37:03.672Z,54.50
2023-04-25T04:39:30.549Z,54.40
2023-04-25T04:41:57.684Z,54.60
2023-04-25T04:44:24.489Z,54.20
2023-04-25T04:46:51.568Z,54.50
2023-04-25T04:49:18.831Z,54.60
2023-04-25T04:51:45.726Z,55.00
2023-04-25T04:54:12.569Z,55.30
2023-04-25T04:56:39.434Z,56.20
2023-04-25T04:59:06.287Z,57.30
2023-04-25T05:01:33.130Z,58.00
2023-04-25T05:04:02.001Z,57.70
2023-04-25T05:06:32.234Z,57.80
2023-04-25T05:08:59.339Z,57.90
2023-04-25T05:11:26.341Z,56.90
2023-04-25T05:13:54.105Z,56.90
2023-04-25T05:16:21.434Z,57.20
2023-04-25T05:18:49.929Z,57.10
2023-04-25T05:21:17.367Z,57.70
2023-04-25T05:23:44.091Z,58.70
2023-04-25T05:26:14.786Z,58.60
2023-04-25T05:28:42.839Z,59.30
2023-04-25T05:31:11.364Z,60.20
2023-04-25T05:33:38.197Z,62.10
2023-04-25T05:36:05.338Z,62.50
2023-04-25T05:38:34.671Z,62.20
2023-04-25T05:41:01.939Z,62.60
2023-04-25T05:43:28.780Z,62.80
2023-04-25T05:45:55.800Z,64.20
2023-04-25T05:48:22.814Z,64.60
2023-04-25T05:50:49.635Z,63.80
2023-04-25T05:53:16.456Z,64.40
2023-04-25T05:55:43.220Z,64.20
2023-04-25T05:58:10.080Z,62.10
2023-04-25T06:00:37.050Z,62.60
2023-04-25T06:03:04.564Z,61.70
2023-04-25T06:05:31.615Z,61.30
2023-04-25T06:07:58.547Z,59.30
2023-04-25T06:10:25.450Z,60.20
2023-04-25T06:12:52.244Z,58.20
2023-04-25T06:15:28.241Z,57.30
2023-04-25T06:17:56.276Z,55.80
2023-04-25T06:20:25.051Z,56.00
2023-04-25T06:22:52.914Z,53.90
2023-04-25T06:25:19.972Z,54.40
2023-04-25T06:27:46.729Z,55.10
2023-04-25T06:30:13.631Z,53.80
2023-04-25T06:32:40.731Z,53.80
2023-04-25T06:35:07.909Z,52.20
2023-04-25T06:37:34.685Z,51.30
2023-04-25T06:40:01.432Z,49.80
2023-04-25T06:42:28.191Z,49.40
2023-04-25T06:44:54.930Z,47.80
2023-04-25T06:47:22.766Z,48.00
2023-04-25T06:49:50.378Z,47.00
2023-04-25T06:52:18.951Z,47.00
2023-04-25T06:54:46.284Z,47.30
2023-04-25T06:57:13.286Z,47.20
2023-04-25T06:59:40.204Z,47.40
2023-04-25T07:02:07.229Z,47.60
2023-04-25T07:04:34.148Z,47.20
2023-04-25T07:07:03.637Z,47.60
2023-04-25T07:09:30.931Z,46.70
2023-04-25T07:11:57.736Z,46.50
2023-04-25T07:14:25.054Z,45.90
2023-04-25T07:16:51.940Z,45.30
2023-04-25T07:19:18.720Z,46.30
2023-04-25T07:21:45.569Z,46.00
2023-04-25T07:24:12.396Z,44.60
2023-04-25T07:26:39.190Z,45.30
2023-04-25T07:29:06.021Z,44.50
2023-04-25T07:31:32.813Z,43.00
2023-04-25T07:34:01.880Z,43.30
2023-04-25T07:36:29.016Z,41.20
2023-04-25T07:38:55.845Z,40.60
2023-04-25T07:41:22.677Z,40.20
2023-04-25T07:43:49.760Z,38.80
2023-04-25T07:46:16.863Z,38.00
2023-04-25T07:48:43.729Z,37.30
2023-04-25T07:51:10.470Z,35.40
2023-04-25T07:53:38.646Z,34.80
2023-04-25T07:56:07.026Z,33.60
2023-04-25T07:58:33.833Z,34.30
2023-04-25T08:01:00.752Z,33.50
2023-04-25T08:03:27.871Z,33.70
2023-04-25T08:05:55.218Z,34.20
2023-04-25T08:08:22.246Z,33.90
2023-04-25T08:10:49.411Z,31.90
2023-04-25T08:13:16.479Z,29.70
2023-04-25T08:15:43.250Z,30.20
2023-04-25T08:18:10.139Z,29.10
2023-04-25T08:20:36.900Z,29.70
2023-04-25T08:23:03.652Z,29.10
2023-04-25T08:25:30.385Z,28.80
2023-04-25T08:27:58.218Z,27.80
2023-04-25T08:30:25.194Z,27.50
2023-04-25T08:32:52.340Z,26.70
2023-04-25T08:35:19.320Z,25.80
2023-04-25T08:37:46.384Z,25.30
2023-04-25T08:40:16.211Z,24.60
2023-04-25T08:42:43.811Z,23.80
2023-04-25T08:45:11.666Z,24.30
2023-04-25T08:47:40.657Z,24.70
2023-04-25T08:50:08.044Z,25.90
2023-04-25T08:52:45.089Z,26.10
2023-04-25T08:55:14.141Z,26.80
2023-04-25T08:57:46.248Z,24.70
2023-04-25T09:00:14.115Z,24.70
2023-04-25T09:02:42.605Z,25.10
2023-04-25T09:05:24.303Z,24.80
2023-04-25T09:07:51.205Z,25.50
2023-04-25T09:10:18.064Z,26.00
2023-04-25T09:12:44.936Z,26.00
2023-04-25T09:15:20.368Z,26.30
2023-04-25T09:17:57.223Z,26.70
2023-04-25T09:20:24.076Z,27.80
2023-04-25T09:22:50.848Z,27.90
2023-04-25T09:25:18.106Z,27.70
2023-04-25T09:27:55.413Z,27.40
2023-04-25T09:30:31.407Z,27.50
2023-04-25T09:33:04.928Z,27.80
2023-04-25T09:35:40.767Z,27.30
2023-04-25T09:38:14.953Z,27.10
2023-04-25T09:40:46.441Z,26.60
2023-04-25T09:43:24.397Z,27.10
2023-04-25T09:45:54.255Z,27.70
2023-04-25T09:48:23.156Z,28.10
2023-04-25T09:51:09.769Z,28.30
2023-04-25T09:53:41.876Z,29.00
2023-04-25T09:56:10.696Z,29.00
2023-04-25T09:58:39.510Z,30.30
2023-04-25T10:01:08.807Z,30.30
2023-04-25T10:03:40.671Z,32.10
2023-04-25T10:06:15.411Z,36.10
2023-04-25T10:08:44.208Z,39.10
2023-04-25T10:11:11.462Z,40.50
2023-04-25T10:13:38.296Z,42.30
2023-04-25T10:16:06.072Z,44.00
2023-04-25T10:18:33.858Z,43.30
2023-04-25T10:21:06.052Z,43.30
2023-04-25T10:23:35.696Z,43.00
2023-04-25T10:26:02.918Z,43.80
2023-04-25T10:28:29.956Z,44.70
2023-04-25T10:31:05.696Z,45.30
2023-04-25T10:33:40.954Z,44.50
2023-04-25T10:36:15.966Z,42.90
2023-04-25T10:38:47.016Z,43.10
2023-04-25T10:41:14.959Z,42.90
2023-04-25T10:43:46.000Z,39.30
2023-04-25T10:46:28.315Z,39.20
2023-04-25T10:49:00.011Z,37.50
2023-04-25T10:51:43.407Z,36.20
2023-04-25T10:54:19.050Z,36.30
2023-04-25T10:56:45.800Z,36.50
2023-04-25T10:59:17.921Z,37.30
2023-04-25T11:01:46.955Z,36.40
2023-04-25T11:04:31.316Z,35.80
2023-04-25T11:07:07.013Z,34.70
2023-04-25T11:09:35.586Z,34.70
2023-04-25T11:12:02.652Z,33.60
2023-04-25T11:14:29.446Z,33.60
2023-04-25T11:16:58.885Z,34.20
2023-04-25T11:19:27.832Z,33.90
2023-04-25T11:22:01.961Z,33.20
2023-04-25T11:24:29.906Z,34.80
2023-04-25T11:26:57.523Z,34.80
2023-04-25T11:29:27.410Z,35.10
2023-04-25T11:31:58.992Z,35.40
2023-04-25T11:34:27.032Z,35.70
2023-04-25T11:36:54.606Z,36.30
2023-04-25T11:39:21.746Z,38.40
2023-04-25T11:41:48.957Z,42.60
2023-04-25T11:44:20.247Z,46.60
2023-04-25T11:46:47.555Z,51.90
2023-04-25T11:49:15.673Z,53.30
2023-04-25T11:51:44.296Z,56.20
2023-04-25T11:54:12.770Z,59.80
2023-04-25T11:56:46.273Z,61.50
2023-04-25T11:59:14.009Z,64.00
2023-04-25T12:01:48.999Z,66.90
2023-04-25T12:04:23.697Z,67.40
2023-04-25T12:06:54.744Z,66.90
2023-04-25T12:09:29.313Z,67.00
2023-04-25T12:11:57.612Z,68.00
2023-04-25T12:14:26.048Z,69.20
2023-04-25T12:16:52.839Z,71.50
2023-04-25T12:19:21.276Z,72.80
2023-04-25T12:21:57.955Z,71.80
2023-04-25T12:24:27.044Z,73.50
2023-04-25T12:27:03.999Z,71.80
2023-04-25T12:29:38.522Z,70.10
2023-04-25T12:32:15.058Z,65.70
2023-04-25T12:34:41.871Z,65.70
2023-04-25T12:37:08.686Z,67.60
2023-04-25T12:39:35.598Z,67.90
2023-04-25T12:42:02.394Z,70.30
2023-04-25T12:44:29.081Z,73.00
2023-04-25T12:46:56.243Z,73.40
2023-04-25T12:49:23.488Z,75.10
2023-04-25T12:51:50.526Z,73.70
2023-04-25T12:54:17.238Z,74.30
2023-04-25T12:56:44.028Z,71.60
2023-04-25T12:59:10.919Z,69.70
2023-04-25T13:01:38.776Z,65.80
2023-04-25T13:04:05.800Z,68.30
2023-04-25T13:06:33.056Z,68.20
2023-04-25T13:09:16.975Z,66.80
2023-04-25T13:11:43.789Z,65.50
2023-04-25T13:14:10.798Z,66.20
2023-04-25T13:16:37.746Z,68.10
2023-04-25T13:19:04.507Z,66.90
2023-04-25T13:21:34.856Z,66.80
2023-04-25T13:24:01.717Z,67.90
2023-04-25T13:26:28.539Z,67.70
2023-04-25T13:28:55.274Z,65.90
2023-04-25T13:31:22.329Z,65.20
2023-04-25T13:33:49.777Z,66.20
2023-04-25T13:36:16.951Z,66.90
2023-04-25T13:38:45.070Z,67.60
2023-04-25T13:41:16.671Z,66.80
2023-04-25T13:43:43.457Z,65.00
2023-04-25T13:46:24.776Z,63.20
2023-04-25T13:49:06.157Z,64.50
2023-04-25T13:51:33.425Z,64.20
2023-04-25T13:54:00.196Z,64.70
2023-04-25T13:56:27.685Z,65.70
2023-04-25T13:58:54.460Z,62.80
2023-04-25T14:01:22.238Z,63.10
2023-04-25T14:03:49.390Z,63.90
2023-04-25T14:06:22.206Z,63.30
2023-04-25T14:08:49.106Z,65.40
2023-04-25T14:11:16.050Z,67.90
2023-04-25T14:13:42.741Z,69.00
2023-04-25T14:16:09.568Z,69.80
2023-04-25T14:18:36.595Z,71.40
2023-04-25T14:21:03.479Z,70.40
2023-04-25T14:23:30.662Z,70.90
2023-04-25T14:25:57.657Z,68.50
2023-04-25T14:28:24.443Z,68.30
2023-04-25T14:30:51.261Z,67.80
2023-04-25T14:33:18.033Z,69.00
2023-04-25T14:35:44.933Z,69.50
2023-04-25T14:38:11.723Z,70.10
2023-04-25T14:40:39.130Z,71.60
2023-04-25T14:43:05.844Z,71.70
2023-04-25T14:45:34.560Z,69.20
2023-04-25T14:48:01.690Z,64.70
2023-04-25T14:50:28.564Z,66.30
2023-04-25T14:52:59.652Z,66.10
2023-04-25T14:55:26.385Z,65.60
2023-04-25T14:57:57.808Z,63.60
2023-04-25T15:00:26.207Z,63.20
2023-04-25T15:02:53.068Z,61.50
2023-04-25T15:05:21.053Z,60.80
2023-04-25T15:07:48.894Z,62.30
2023-04-25T15:10:17.048Z,61.90
2023-04-25T15:12:46.922Z,63.10
2023-04-25T15:15:22.639Z,63.40
2023-04-25T15:17:52.576Z,63.20
2023-04-25T15:20:19.575Z,66.00
2023-04-25T15:22:46.997Z,66.00
2023-04-25T15:25:13.700Z,66.70
2023-04-25T15:27:42.807Z,67.00
2023-04-25T15:30:12.150Z,66.50
2023-04-25T15:32:39.207Z,65.90
2023-04-25T15:35:07.425Z,65.80
2023-04-25T15:37:34.870Z,62.40
2023-04-25T15:40:09.892Z,61.70
2023-04-25T15:42:37.597Z,61.30
2023-04-25T15:45:09.343Z,61.70
2023-04-25T15:47:36.841Z,61.20
2023-04-25T15:50:06.471Z,61.30
2023-04-25T15:52:33.727Z,61.50
2023-04-25T15:55:01.464Z,59.80
2023-04-25T15:57:28.340Z,59.70
2023-04-25T15:59:55.057Z,59.00
2023-04-25T16:02:21.913Z,58.60
2023-04-25T16:04:49.118Z,58.90
2023-04-25T16:07:16.366Z,57.40
2023-04-25T16:09:43.146Z,55.10
2023-04-25T16:12:10.955Z,55.70
2023-04-25T16:14:37.761Z,55.30
2023-04-25T16:17:04.475Z,54.70
2023-04-25T16:19:31.477Z,54.80
2023-04-25T16:21:58.343Z,55.20
2023-04-25T16:24:25.086Z,54.20
2023-04-25T16:26:52.393Z,54.30
2023-04-25T16:29:19.145Z,55.60
2023-04-25T16:31:47.456Z,52.20
2023-04-25T16:34:15.411Z,49.60
2023-04-25T16:36:42.299Z,50.20
2023-04-25T16:39:09.702Z,54.80
2023-04-25T16:41:36.869Z,58.20
2023-04-25T16:44:03.716Z,62.60
2023-04-25T16:46:30.471Z,66.70
2023-04-25T16:48:57.301Z,68.60
2023-04-25T16:51:24.109Z,68.90
2023-04-25T16:53:50.899Z,67.40
2023-04-25T16:56:17.681Z,67.50
2023-04-25T16:58:44.504Z,66.00
2023-04-25T17:01:11.792Z,62.90
2023-04-25T17:03:38.821Z,64.40
2023-04-25T17:06:06.118Z,64.40
2023-04-25T17:08:32.819Z,62.80
2023-04-25T17:10:59.988Z,64.00
2023-04-25T17:13:30.822Z,64.60
2023-04-25T17:15:58.999Z,67.40
2023-04-25T17:18:26.188Z,68.00
2023-04-25T17:20:53.059Z,68.60
2023-04-25T17:23:19.908Z,70.10
2023-04-25T17:25:46.798Z,69.80
2023-04-25T17:28:13.929Z,69.40
2023-04-25T17:30:42.352Z,69.30
2023-04-25T17:33:16.523Z,70.30
2023-04-25T17:35:43.226Z,70.70
2023-04-25T17:38:10.121Z,70.30
2023-04-25T17:40:36.942Z,69.20
2023-04-25T17:43:03.731Z,69.10
2023-04-25T17:45:34.606Z,69.60
2023-04-25T17:48:02.193Z,70.00
2023-04-25T17:50:29.104Z,69.10
2023-04-25T17:52:55.990Z,66.90
2023-04-25T17:55:23.714Z,67.30
2023-04-25T17:57:50.588Z,67.40
2023-04-25T18:00:18.586Z,66.90
2023-04-25T18:02:47.464Z,67.40
2023-04-25T18:05:15.713Z,66.90
2023-04-25T18:07:42.762Z,67.60
2023-04-25T18:10:11.732Z,68.20
2023-04-25T18:12:38.530Z,68.20
2023-04-25T18:15:06.958Z,67.90
2023-04-25T18:17:40.522Z,68.70
2023-04-25T18:20:15.043Z,68.20
2023-04-25T18:22:43.045Z,67.90
2023-04-25T18:25:11.174Z,68.30
2023-04-25T18:27:38.809Z,67.90
2023-04-25T18:30:09.054Z,68.60
2023-04-25T18:32:35.897Z,68.10
2023-04-25T18:35:03.347Z,67.70
2023-04-25T18:37:30.151Z,67.60
2023-04-25T18:39:56.899Z,66.00
2023-04-25T18:42:23.672Z,65.20
2023-04-25T18:44:51.110Z,65.60
2023-04-25T18:47:17.928Z,65.20
2023-04-25T18:49:45.654Z,65.10
2023-04-25T18:52:15.080Z,65.10
2023-04-25T18:54:42.511Z,65.00
2023-04-25T18:57:09.499Z,65.00
2023-04-25T18:59:36.433Z,65.10
2023-04-25T19:02:05.327Z,65.00
2023-04-25T19:04:32.682Z,64.70
2023-04-25T19:06:59.724Z,65.70
2023-04-25T19:09:26.527Z,65.30
2023-04-25T19:11:53.352Z,65.10
2023-04-25T19:14:20.094Z,64.10
2023-04-25T19:16:46.961Z,63.40
2023-04-25T19:19:13.804Z,63.60
2023-04-25T19:21:41.634Z,63.40
2023-04-25T19:24:08.834Z,64.20
2023-04-25T19:26:35.715Z,63.70
2023-04-25T19:29:15.421Z,63.80
2023-04-25T19:31:44.919Z,70.00
2023-04-25T19:34:13.113Z,73.20
2023-04-25T19:36:42.355Z,73.60
2023-04-25T19:39:09.554Z,71.80
2023-04-25T19:41:38.249Z,72.00
2023-04-25T19:44:07.446Z,68.30
2023-04-25T19:46:35.337Z,67.00
2023-04-25T19:49:03.187Z,66.10
2023-04-25T19:51:32.016Z,65.80
2023-04-25T19:53:58.718Z,65.90
2023-04-25T19:56:26.356Z,65.10
2023-04-25T19:58:53.500Z,64.90
2023-04-25T20:01:22.475Z,64.20
2023-04-25T20:03:51.797Z,64.70
2023-04-25T20:06:19.316Z,65.70
2023-04-25T20:08:47.231Z,65.30
2023-04-25T20:11:14.929Z,67.00
2023-04-25T20:13:42.026Z,67.60
2023-04-25T20:16:08.915Z,67.80
2023-04-25T20:18:35.735Z,68.00
2023-04-25T20:21:02.738Z,68.00
2023-04-25T20:23:29.567Z,67.30
2023-04-25T20:25:56.386Z,68.10
2023-04-25T20:28:23.359Z,67.30
2023-04-25T20:30:50.739Z,67.50
2023-04-25T20:33:17.657Z,68.20
2023-04-25T20:35:44.521Z,68.80
2023-04-25T20:38:12.131Z,69.30
2023-04-25T20:40:38.932Z,69.40
2023-04-25T20:43:05.747Z,69.30
2023-04-25T20:45:34.502Z,70.20
2023-04-25T20:48:02.547Z,70.40
2023-04-25T20:50:29.561Z,70.70
2023-04-25T20:52:57.269Z,70.70
2023-04-25T20:55:24.292Z,70.30
2023-04-25T20:57:51.083Z,69.90
2023-04-25T21:00:28.935Z,69.80
2023-04-25T21:02:57.429Z,69.70
2023-04-25T21:05:24.847Z,69.20
2023-04-25T21:07:55.184Z,68.30
2023-04-25T21:10:22.034Z,69.20
2023-04-25T21:12:49.895Z,69.60
2023-04-25T21:15:19.395Z,70.50
2023-04-25T21:17:50.590Z,71.10
2023-04-25T21:20:19.009Z,72.70
2023-04-25T21:22:51.124Z,72.80
2023-04-25T21:25:28.992Z,72.50
2023-04-25T21:27:56.265Z,72.20
2023-04-25T21:30:24.435Z,73.00
2023-04-25T21:32:52.242Z,72.70
2023-04-25T21:35:20.725Z,72.50
2023-04-25T21:37:47.494Z,72.20
2023-04-25T21:40:15.146Z,71.70
2023-04-25T21:42:42.535Z,71.00
2023-04-25T21:45:10.118Z,70.20
2023-04-25T21:47:37.090Z,70.50
2023-04-25T21:50:04.709Z,71.10
2023-04-25T21:52:32.002Z,70.90
2023-04-25T21:54:58.825Z,70.40
2023-04-25T21:57:25.625Z,71.10
2023-04-25T21:59:52.417Z,71.40
2023-04-25T22:02:19.446Z,71.50
2023-04-25T22:04:47.648Z,72.00
2023-04-25T22:07:15.133Z,71.30
2023-04-25T22:09:53.809Z,71.40
2023-04-25T22:12:20.957Z,72.10
2023-04-25T22:14:48.914Z,72.30
2023-04-25T22:17:15.703Z,72.60
2023-04-25T22:19:43.226Z,71.40
2023-04-25T22:22:10.066Z,71.10
2023-04-25T22:24:36.910Z,71.50
2023-04-25T22:27:03.846Z,72.20
2023-04-25T22:29:30.700Z,72.20
2023-04-25T22:31:58.436Z,72.40
2023-04-25T22:34:25.230Z,72.20
2023-04-25T22:36:51.985Z,71.80
2023-04-25T22:39:19.354Z,70.60
2023-04-25T22:41:46.549Z,70.20
2023-04-25T22:44:13.581Z,69.00
2023-04-25T22:46:40.370Z,68.60
2023-04-25T22:49:07.101Z,68.60
2023-04-25T22:51:34.322Z,68.10
2023-04-25T22:54:01.548Z,67.70
2023-04-25T22:56:32.657Z,68.00
2023-04-25T22:58:59.471Z,68.20
2023-04-25T23:01:27.931Z,68.30
2023-04-25T23:03:55.036Z,69.10
2023-04-25T23:06:21.914Z,69.00
2023-04-25T23:08:48.726Z,68.40
2023-04-25T23:11:15.660Z,69.10
2023-04-25T23:13:42.426Z,69.00
2023-04-25T23:16:10.736Z,69.20
2023-04-25T23:18:39.225Z,69.50
2023-04-25T23:21:11.424Z,69.60
2023-04-25T23:23:38.794Z,70.50
2023-04-25T23:26:09.841Z,71.80
2023-04-25T23:28:42.015Z,72.10
2023-04-25T23:31:10.340Z,71.90
2023-04-25T23:33:37.363Z,72.30
2023-04-25T23:36:04.544Z,73.50
2023-04-25T23:38:32.210Z,74.20
2023-04-25T23:40:58.893Z,74.60
2023-04-25T23:43:25.660Z,74.70
2023-04-25T23:45:54.109Z,74.40
2023-04-25T23:48:20.987Z,75.00
2023-04-25T23:50:47.705Z,75.70
2023-04-25T23:53:14.477Z,76.60
2023-04-25T23:55:41.639Z,76.30
2023-04-25T23:58:08.427Z,76.80
